Time;durP1;ratioP1;P1;durP2;ratioP2;P2;SDS_P1;SDS_P2;PMS_P1;PMS_P2;Temp;Humidity;BMP_temperature;BMP_pressure;BME280_temperature;BME280_humidity;BME280_pressure;Samples;Min_cycle;Max_cycle;Signal;HPM_P1;HPM_P2
2021/09/22 00:00:34;;;;;;;18.80;9.38;;;;;;;8.16;87.20;97326.13;5001315;28;20062;-82
2021/09/22 00:03:01;;;;;;;19.55;10.75;;;;;;;8.15;86.91;97322.72;5001923;28;20063;-82
2021/09/22 00:05:26;;;;;;;20.35;9.65;;;;;;;8.08;87.77;97321.88;5014578;28;20048;-83
2021/09/22 00:07:52;;;;;;;20.77;9.63;;;;;;;8.09;88.00;97325.28;4997742;28;20042;-80
2021/09/22 00:10:19;;;;;;;18.48;9.13;;;;;;;8.05;88.15;97324.84;4997814;28;20030;-80
2021/09/22 00:12:48;;;;;;;20.10;9.50;;;;;;;8.01;87.83;97321.00;5014731;28;20042;-81
2021/09/22 00:15:16;;;;;;;18.80;10.07;;;;;;;7.98;88.09;97317.97;5015795;28;20132;-82
2021/09/22 00:17:44;;;;;;;20.48;9.95;;;;;;;7.96;88.34;97323.38;4998985;28;20053;-82
2021/09/22 00:20:12;;;;;;;;;;;;;;;7.93;88.42;97312.50;5030518;28;20038;-83
2021/09/22 00:22:38;;;;;;;19.80;9.60;;;;;;;7.86;89.18;97312.44;5032337;28;19960;-81
2021/09/22 00:25:06;;;;;;;19.35;10.02;;;;;;;7.90;89.00;97308.44;5033225;28;20030;-81
2021/09/22 00:27:31;;;;;;;21.00;10.27;;;;;;;7.85;89.22;97310.81;5021689;28;20037;-79
2021/09/22 00:29:58;;;;;;;20.77;10.20;;;;;;;7.80;89.39;97314.03;5014552;28;20050;-79
2021/09/22 00:32:24;;;;;;;22.90;9.65;;;;;;;7.73;89.29;97307.09;5015056;28;20042;-79
2021/09/22 00:34:49;;;;;;;19.77;10.02;;;;;;;7.75;88.97;97311.16;5014602;28;20045;-79
2021/09/22 00:37:16;;;;;;;19.20;9.70;;;;;;;7.74;88.82;97308.72;4997346;28;20049;-80
2021/09/22 00:39:42;;;;;;;21.02;10.18;;;;;;;7.73;88.90;97307.09;5014907;28;20038;-80
2021/09/22 00:42:09;;;;;;;20.80;10.00;;;;;;;7.69;89.03;97304.03;5014591;28;20509;-80
2021/09/22 00:44:48;;;;;;;20.45;10.00;;;;;;;7.67;88.62;97306.06;5017467;28;20100;-80
2021/09/22 00:47:14;;;;;;;20.05;9.95;;;;;;;7.70;89.00;97307.50;5017328;28;20069;-80
2021/09/22 00:49:40;;;;;;;19.15;9.27;;;;;;;7.68;89.11;97310.28;5013444;28;20042;-81
2021/09/22 00:52:05;;;;;;;21.20;9.98;;;;;;;7.46;89.79;97312.13;4994289;28;20104;-78
2021/09/22 00:54:32;;;;;;;22.85;10.95;;;;;;;7.38;89.67;97314.09;4993403;28;20042;-78
2021/09/22 00:56:58;;;;;;;20.60;10.20;;;;;;;7.42;89.98;97312.69;5012263;28;20052;-78
2021/09/22 00:59:26;;;;;;;20.20;9.63;;;;;;;7.49;89.18;97317.00;5013384;28;20450;-79
2021/09/22 01:01:54;;;;;;;21.45;10.57;;;;;;;7.53;88.61;97307.78;4995358;28;20137;-78
2021/09/22 01:04:22;;;;;;;20.45;10.65;;;;;;;7.55;88.33;97320.66;5012862;28;20453;-79
2021/09/22 01:06:51;;;;;;;19.15;10.32;;;;;;;7.58;88.33;97321.09;4995678;28;20057;-79
2021/09/22 01:09:17;;;;;;;22.23;10.10;;;;;;;7.46;88.02;97312.13;5012454;28;20088;-79
2021/09/22 01:11:47;;;;;;;19.25;9.82;;;;;;;7.46;89.00;97308.72;5011261;28;20038;-79
2021/09/22 01:14:12;;;;;;;21.58;9.93;;;;;;;7.49;88.22;97311.78;5011468;28;20046;-78
2021/09/22 01:16:40;;;;;;;20.50;9.85;;;;;;;7.53;87.68;97317.41;5015857;28;20413;-79
2021/09/22 01:19:06;;;;;;;20.25;10.25;;;;;;;7.55;87.35;97307.59;5032682;28;20037;-79
2021/09/22 01:21:33;;;;;;;18.05;8.85;;;;;;;7.55;87.22;97300.53;5020535;28;20045;-79
2021/09/22 01:24:01;;;;;;;20.55;9.70;;;;;;;7.58;87.71;97300.13;5012965;28;20552;-78
2021/09/22 01:26:30;;;;;;;20.58;9.77;;;;;;;7.46;88.13;97298.25;5022932;28;20048;-78
2021/09/22 01:28:58;;;;;;;22.30;10.30;;;;;;;7.52;87.35;97300.91;5012280;28;20052;-78
2021/09/22 01:31:24;;;;;;;20.08;10.20;;;;;;;7.41;87.28;97301.41;5013060;28;20049;-79
2021/09/22 01:33:50;;;;;;;20.23;10.02;;;;;;;7.38;88.04;97301.81;5012531;28;20072;-78
2021/09/22 01:36:15;;;;;;;20.90;11.02;;;;;;;7.40;87.67;97301.63;4995266;28;20347;-79
2021/09/22 01:38:42;;;;;;;20.40;10.30;;;;;;;7.39;87.74;97303.41;4994779;28;20092;-79
2021/09/22 01:41:09;;;;;;;20.92;9.35;;;;;;;7.41;87.51;97308.47;4995289;28;20042;-78
2021/09/22 01:43:37;;;;;;;20.25;9.77;;;;;;;7.44;87.23;97314.13;5020637;23;20037;-78
2021/09/22 01:46:06;;;;;;;18.60;9.45;;;;;;;7.36;87.50;97322.09;5009740;28;20049;-77
2021/09/22 01:48:32;;;;;;;20.58;10.23;;;;;;;7.31;87.35;97308.78;5003691;28;20041;-77
2021/09/22 01:50:59;;;;;;;22.63;10.07;;;;;;;7.22;88.36;97315.97;5039489;28;20087;-77
2021/09/22 01:53:26;;;;;;;18.55;9.85;;;;;;;7.36;88.46;97320.28;5020494;28;20045;-77
2021/09/22 01:55:54;;;;;;;20.05;9.73;;;;;;;7.20;88.75;97317.13;5018650;28;20070;-76
2021/09/22 01:58:19;;;;;;;19.88;10.57;;;;;;;7.09;89.32;97315.81;4999632;28;20045;-77
2021/09/22 02:00:45;;;;;;;20.55;10.10;;;;;;;7.05;89.28;97314.59;5016892;28;20028;-78
2021/09/22 02:03:11;;;;;;;21.30;10.30;;;;;;;6.96;89.87;97320.94;5017148;28;20042;-78
2021/09/22 02:05:39;;;;;;;19.95;9.68;;;;;;;6.94;89.41;97323.72;4998336;28;20139;-77
2021/09/22 02:08:07;;;;;;;;;;;;;;;6.98;90.02;97330.19;4999248;28;20526;-77
2021/09/22 02:10:32;;;;;;;20.27;10.00;;;;;;;7.03;89.75;97321.78;4998959;28;19984;-77
2021/09/22 02:13:02;;;;;;;19.73;10.38;;;;;;;7.02;88.96;97325.41;5016333;28;20081;-78
2021/09/22 02:15:27;;;;;;;20.17;9.98;;;;;;;6.97;88.96;97328.56;5015657;28;20461;-77
2021/09/22 02:17:55;;;;;;;20.65;10.02;;;;;;;6.98;88.79;97326.78;4997075;28;20037;-77
2021/09/22 02:20:21;;;;;;;;;;;;;;;6.98;89.60;97322.34;5018091;28;20041;-78
2021/09/22 02:22:47;;;;;;;21.13;10.13;;;;;;;6.96;89.94;97321.72;5017402;28;19944;-78
2021/09/22 02:25:13;;;;;;;20.58;9.52;;;;;;;6.99;90.06;97316.13;5016464;28;20498;-78
2021/09/22 02:27:39;;;;;;;21.52;9.93;;;;;;;6.97;89.42;97318.13;4997710;28;20084;-79
2021/09/22 02:30:10;;;;;;;21.85;10.05;;;;;;;7.01;89.46;97319.38;4997881;28;20224;-78
2021/09/22 02:32:36;;;;;;;22.08;9.98;;;;;;;7.03;89.07;97312.13;4997910;28;20038;-78
2021/09/22 02:35:03;;;;;;;22.20;10.27;;;;;;;7.06;88.71;97316.19;5016609;28;20060;-77
2021/09/22 02:37:28;;;;;;;24.58;10.18;;;;;;;6.98;88.87;97318.91;4999657;28;20042;-77
2021/09/22 02:39:55;;;;;;;21.58;10.20;;;;;;;6.98;89.28;97311.06;5017852;28;20092;-77
2021/09/22 02:42:21;;;;;;;22.42;10.82;;;;;;;6.99;89.41;97302.22;4998703;28;20061;-78
2021/09/22 02:44:46;;;;;;;21.05;10.70;;;;;;;6.92;89.55;97301.34;4999210;28;20064;-78
2021/09/22 02:47:14;;;;;;;24.65;10.50;;;;;;;6.89;89.35;97299.09;5016369;28;20213;-77
2021/09/22 02:49:39;;;;;;;20.75;10.23;;;;;;;6.83;90.09;97291.03;4993433;28;20046;-77
2021/09/22 02:52:05;;;;;;;24.63;10.88;;;;;;;6.96;89.25;97300.81;5013953;28;20465;-77
2021/09/22 02:54:33;;;;;;;21.95;10.43;;;;;;;6.89;88.62;97292.09;4997509;28;20060;-78
2021/09/22 02:56:59;;;;;;;;;;;;;;;6.87;88.43;97286.22;4997909;28;20042;-78
2021/09/22 02:59:24;;;;;;;22.20;9.65;;;;;;;6.79;88.55;97283.72;5015283;28;19975;-76
2021/09/22 03:01:50;;;;;;;21.83;10.55;;;;;;;6.75;89.19;97280.66;5015216;28;20046;-77
2021/09/22 03:04:19;;;;;;;22.63;10.23;;;;;;;6.69;88.86;97283.22;5015586;28;20076;-77
2021/09/22 03:06:45;;;;;;;21.73;10.50;;;;;;;6.65;89.54;97297.66;5014411;28;20046;-77
2021/09/22 03:09:12;;;;;;;22.58;10.50;;;;;;;6.52;90.13;97306.97;5015050;28;20038;-76
2021/09/22 03:11:38;;;;;;;21.70;10.82;;;;;;;6.49;89.64;97309.94;5015116;28;20046;-77
2021/09/22 03:14:03;;;;;;;23.27;10.95;;;;;;;6.50;90.30;97300.28;5015332;28;20156;-77
2021/09/22 03:16:32;;;;;;;23.67;11.07;;;;;;;6.55;90.36;97303.16;4997709;28;20484;-78
2021/09/22 03:19:00;;;;;;;22.98;11.10;;;;;;;6.43;90.57;97300.22;5015994;28;20046;-78
2021/09/22 03:21:29;;;;;;;;;;;;;;;6.53;90.91;97305.16;5016576;28;20037;-79
2021/09/22 03:23:55;;;;;;;20.98;9.88;;;;;;;6.49;91.00;97296.88;5016712;28;20305;-80
2021/09/22 03:26:22;;;;;;;23.77;10.40;;;;;;;6.59;90.17;97288.72;4998464;28;20106;-79
2021/09/22 03:28:48;;;;;;;21.20;10.50;;;;;;;6.53;89.92;97298.13;5012914;28;20026;-78
2021/09/22 03:31:14;;;;;;;21.50;10.13;;;;;;;6.43;90.47;97304.63;5023678;28;20141;-79
2021/09/22 03:33:39;;;;;;;23.08;10.98;;;;;;;6.41;90.29;97302.22;5020824;28;20118;-79
2021/09/22 03:36:05;;;;;;;23.58;11.07;;;;;;;6.45;90.56;97305.25;5020044;28;20053;-81
2021/09/22 03:38:32;;;;;;;21.98;10.55;;;;;;;6.53;89.65;97310.38;5001058;28;20061;-80
2021/09/22 03:40:58;;;;;;;21.58;11.23;;;;;;;6.45;89.96;97311.28;5000106;28;20060;-79
2021/09/22 03:43:25;;;;;;;21.85;10.55;;;;;;;6.41;90.54;97307.44;5016351;28;20146;-76
2021/09/22 03:45:51;;;;;;;20.65;9.95;;;;;;;6.44;91.00;97308.84;5019164;28;20108;-78
2021/09/22 03:48:19;;;;;;;21.90;10.50;;;;;;;6.53;89.56;97313.00;5016800;28;20105;-79
2021/09/22 03:50:48;;;;;;;22.20;10.90;;;;;;;6.42;90.16;97313.47;5014829;28;20034;-79
2021/09/22 03:53:16;;;;;;;21.83;10.23;;;;;;;6.42;90.17;97319.50;5015424;28;20430;-78
2021/09/22 03:55:44;;;;;;;22.13;10.55;;;;;;;6.37;90.95;97327.06;5015023;28;20502;-81
2021/09/22 03:58:09;;;;;;;23.48;10.57;;;;;;;6.36;91.11;97330.69;5015050;28;20042;-79
2021/09/22 04:00:35;;;;;;;21.85;10.65;;;;;;;6.43;90.95;97330.75;5034541;28;20085;-77
2021/09/22 04:03:03;;;;;;;22.35;11.25;;;;;;;6.32;90.66;97334.66;5034530;28;20040;-78
2021/09/22 04:05:32;;;;;;;22.48;11.23;;;;;;;6.32;91.19;97332.84;5001350;28;20042;-79
2021/09/22 04:08:00;;;;;;;24.23;11.02;;;;;;;6.29;91.40;97338.41;5016573;28;20073;-78
2021/09/22 04:10:25;;;;;;;22.85;11.18;;;;;;;6.31;90.68;97333.03;5031469;28;20045;-78
2021/09/22 04:12:52;;;;;;;22.23;10.65;;;;;;;6.37;90.35;97329.69;5031296;28;20144;-78
2021/09/22 04:15:18;;;;;;;21.90;10.40;;;;;;;6.28;90.62;97330.75;5033249;28;20105;-78
2021/09/22 04:17:44;;;;;;;22.15;11.02;;;;;;;6.30;90.75;97332.22;5022460;28;20052;-79
2021/09/22 04:20:10;;;;;;;27.17;11.70;;;;;;;6.26;90.35;97330.94;5001458;28;20042;-77
2021/09/22 04:22:39;;;;;;;23.75;10.48;;;;;;;6.24;90.72;97325.09;5018293;28;20483;-77
2021/09/22 04:25:05;;;;;;;24.25;10.93;;;;;;;6.21;90.38;97327.25;5016698;28;20041;-77
2021/09/22 04:27:31;;;;;;;22.27;10.88;;;;;;;6.08;90.96;97316.63;5016125;28;20080;-77
2021/09/22 04:30:00;;;;;;;23.38;11.05;;;;;;;6.03;91.42;97319.78;4997998;28;20042;-78
2021/09/22 04:32:26;;;;;;;23.35;11.50;;;;;;;5.96;91.23;97324.91;5019303;28;20105;-76
2021/09/22 04:34:51;;;;;;;23.88;11.55;;;;;;;5.94;91.97;97313.84;5016088;28;20070;-77
2021/09/22 04:37:17;;;;;;;25.52;11.20;;;;;;;6.02;91.85;97329.41;5017208;28;20045;-78
2021/09/22 04:39:43;;;;;;;25.88;12.13;;;;;;;6.02;90.86;97323.38;5016058;28;20053;-81
2021/09/22 04:42:08;;;;;;;26.50;12.27;;;;;;;5.89;91.07;97325.78;5017468;28;20038;-78
2021/09/22 04:44:34;;;;;;;23.05;11.63;;;;;;;5.78;92.04;97327.03;5018477;28;20034;-77
2021/09/22 04:47:01;;;;;;;22.05;10.05;;;;;;;5.83;91.35;97319.47;5017687;28;20053;-80
2021/09/22 04:49:27;;;;;;;24.90;11.50;;;;;;;5.81;91.68;97331.88;5017670;28;20050;-79
2021/09/22 04:51:55;;;;;;;22.77;10.88;;;;;;;5.76;91.21;97323.78;5018072;28;20050;-76
2021/09/22 04:54:20;;;;;;;23.90;10.68;;;;;;;5.83;91.30;97337.75;5017003;28;20046;-76
2021/09/22 04:56:46;;;;;;;20.38;10.18;;;;;;;5.93;91.11;97338.34;5025063;28;20108;-77
2021/09/22 04:59:14;;;;;;;22.80;10.55;;;;;;;5.94;90.77;97328.69;5003858;28;20042;-76
2021/09/22 05:01:42;;;;;;;;;;;;;;;5.97;91.17;97326.53;5000448;28;20034;-77
2021/09/22 05:04:09;;;;;;;23.60;10.43;;;;;;;5.90;90.97;97322.97;5013676;28;19917;-75
2021/09/22 05:06:35;;;;;;;29.95;12.85;;;;;;;5.89;91.05;97323.97;4986579;28;20079;-75
2021/09/22 05:09:01;;;;;;;23.30;10.35;;;;;;;5.89;91.32;97329.19;5001135;28;20038;-76
2021/09/22 05:11:27;;;;;;;24.00;11.40;;;;;;;5.93;91.31;97327.88;5013418;28;20065;-76
2021/09/22 05:13:52;;;;;;;24.05;10.70;;;;;;;5.98;90.56;97327.34;5014372;28;20226;-75
2021/09/22 05:16:18;;;;;;;21.27;10.40;;;;;;;6.01;90.57;97325.16;5015657;28;20041;-74
2021/09/22 05:18:44;;;;;;;23.45;11.23;;;;;;;6.05;90.37;97333.47;5018920;28;20042;-74
2021/09/22 05:21:11;;;;;;;25.55;12.02;;;;;;;6.11;89.87;97334.56;5017750;28;20046;-75
2021/09/22 05:23:36;;;;;;;23.25;11.55;;;;;;;6.16;89.66;97334.81;5000569;28;20081;-75
2021/09/22 05:26:02;;;;;;;23.73;11.05;;;;;;;6.13;89.22;97340.41;5017749;28;20090;-74
2021/09/22 05:28:28;;;;;;;24.67;11.82;;;;;;;6.08;89.22;97325.28;5017783;28;20517;-75
2021/09/22 05:30:53;;;;;;;22.98;10.82;;;;;;;6.16;89.66;97337.44;5018050;28;20042;-74
2021/09/22 05:33:21;;;;;;;25.90;11.82;;;;;;;6.17;88.87;97336.44;5017621;28;20049;-76
2021/09/22 05:35:47;;;;;;;24.17;11.07;;;;;;;6.16;88.35;97335.63;5017940;28;20073;-76
2021/09/22 05:38:14;;;;;;;23.05;11.32;;;;;;;6.20;88.84;97333.47;5017443;28;20557;-75
2021/09/22 05:40:40;;;;;;;25.03;10.70;;;;;;;6.23;88.30;97340.94;5017183;28;20037;-76
2021/09/22 05:43:06;;;;;;;23.27;11.70;;;;;;;6.11;89.12;97339.78;5018252;28;20271;-76
2021/09/22 05:45:32;;;;;;;23.50;11.38;;;;;;;6.12;88.75;97338.78;4999750;28;20122;-75
2021/09/22 05:48:00;;;;;;;25.65;12.35;;;;;;;6.23;88.28;97335.72;5017712;28;20600;-75
2021/09/22 05:50:26;;;;;;;26.35;12.05;;;;;;;6.31;88.28;97333.03;5016919;28;20068;-77
2021/09/22 05:52:52;;;;;;;24.45;11.30;;;;;;;6.33;88.13;97333.66;5018992;28;20405;-76
2021/09/22 05:55:19;;;;;;;25.60;11.25;;;;;;;6.35;87.54;97330.84;5000638;28;20045;-76
2021/09/22 05:57:44;;;;;;;20.58;10.65;;;;;;;6.36;88.50;97330.69;5017834;28;20132;-75
2021/09/22 06:00:11;;;;;;;21.67;10.75;;;;;;;6.43;88.90;97334.19;4998750;28;20082;-75
2021/09/22 06:02:36;;;;;;;22.02;11.38;;;;;;;6.52;88.84;97340.13;5017549;28;20046;-77
2021/09/22 06:05:03;;;;;;;23.73;11.13;;;;;;;6.61;88.60;97343.44;5017041;28;20084;-76
2021/09/22 06:07:28;;;;;;;24.30;11.35;;;;;;;6.73;88.29;97347.22;5016766;28;20049;-75
2021/09/22 06:09:54;;;;;;;22.80;10.50;;;;;;;6.90;87.30;97346.00;4999311;28;20056;-76
2021/09/22 06:12:23;;;;;;;23.00;11.70;;;;;;;7.04;86.39;97342.53;4999681;28;20048;-76
2021/09/22 06:14:49;;;;;;;24.25;11.52;;;;;;;7.02;86.91;97341.91;5016999;28;20061;-76
2021/09/22 06:17:15;;;;;;;23.30;11.23;;;;;;;6.99;86.17;97344.88;5016831;28;20046;-75
2021/09/22 06:19:43;;;;;;;24.73;11.63;;;;;;;7.16;85.37;97342.03;5000285;28;20044;-74
2021/09/22 06:22:09;;;;;;;21.52;10.52;;;;;;;7.23;85.06;97343.75;4998990;28;20033;-75
2021/09/22 06:24:35;;;;;;;23.45;12.60;;;;;;;7.13;85.49;97342.44;5017198;28;20144;-74
2021/09/22 06:27:03;;;;;;;22.67;12.02;;;;;;;7.27;85.37;97344.19;5016395;28;20042;-76
2021/09/22 06:29:33;;;;;;;24.38;12.00;;;;;;;7.35;85.25;97336.19;5016771;28;20052;-74
2021/09/22 06:32:03;;;;;;;23.27;11.88;;;;;;;7.42;84.46;97346.72;5019674;28;20037;-74
2021/09/22 06:34:31;;;;;;;22.20;11.63;;;;;;;7.38;84.95;97341.06;5015348;28;20049;-76
2021/09/22 06:36:56;;;;;;;25.38;12.15;;;;;;;7.59;85.24;97351.53;5015884;28;20382;-77
2021/09/22 06:39:22;;;;;;;25.33;11.68;;;;;;;7.67;84.88;97344.53;5016016;28;20498;-75
2021/09/22 06:41:50;;;;;;;21.30;11.82;;;;;;;7.71;84.47;97357.06;5015869;28;20038;-75
2021/09/22 06:44:16;;;;;;;22.13;12.00;;;;;;;7.89;85.28;97359.22;5016823;28;20053;-75
2021/09/22 06:46:43;;;;;;;22.23;11.93;;;;;;;7.90;84.00;97351.16;5016952;28;20095;-75
2021/09/22 06:49:08;;;;;;;22.00;11.02;;;;;;;8.11;83.89;97354.72;5016245;28;20097;-76
2021/09/22 06:51:34;;;;;;;24.50;11.63;;;;;;;8.20;83.99;97358.03;5016582;28;20368;-75
2021/09/22 06:54:00;;;;;;;25.08;12.13;;;;;;;8.34;83.69;97362.31;4998015;28;20042;-75
2021/09/22 06:56:25;;;;;;;26.05;13.00;;;;;;;8.41;83.55;97369.25;4998634;28;20048;-76
2021/09/22 06:58:51;;;;;;;25.77;12.27;;;;;;;8.61;83.24;97369.38;5016119;28;20038;-76
2021/09/22 07:01:17;;;;;;;22.38;11.55;;;;;;;8.73;82.20;97359.13;5015883;28;20069;-75
2021/09/22 07:03:44;;;;;;;23.83;11.85;;;;;;;8.93;81.83;97362.66;5016034;28;20127;-76
2021/09/22 07:06:11;;;;;;;23.33;10.95;;;;;;;9.11;80.63;97369.97;5014848;28;20076;-74
2021/09/22 07:08:38;;;;;;;25.75;10.70;;;;;;;9.27;80.51;97375.88;4998273;28;20064;-76
2021/09/22 07:11:03;;;;;;;21.95;11.07;;;;;;;9.48;79.83;97365.19;5015889;28;20045;-75
2021/09/22 07:13:31;;;;;;;21.80;10.60;;;;;;;9.63;79.10;97373.72;5016367;28;20049;-75
2021/09/22 07:15:57;;;;;;;21.52;11.60;;;;;;;9.69;77.39;97372.91;5014955;28;20054;-74
2021/09/22 07:18:23;;;;;;;21.73;11.20;;;;;;;9.80;76.89;97373.31;4998619;28;20054;-75
2021/09/22 07:20:50;;;;;;;21.92;11.43;;;;;;;9.94;75.96;97372.28;5016933;28;20513;-74
2021/09/22 07:23:18;;;;;;;19.23;10.40;;;;;;;10.15;75.54;97366.00;4998523;28;20072;-76
2021/09/22 07:25:44;;;;;;;19.50;10.20;;;;;;;10.39;74.15;97364.59;4997419;28;20045;-76
2021/09/22 07:28:10;;;;;;;21.90;11.45;;;;;;;10.41;73.58;97375.72;4997789;28;20137;-76
2021/09/22 07:30:36;;;;;;;21.88;11.55;;;;;;;10.66;73.97;97368.75;5015530;28;20081;-75
2021/09/22 07:33:03;;;;;;;21.33;10.30;;;;;;;10.82;71.61;97367.50;5015161;28;20045;-76
2021/09/22 07:35:29;;;;;;;21.07;10.73;;;;;;;11.08;71.95;97365.75;4996898;28;20104;-75
2021/09/22 07:37:56;;;;;;;19.67;10.75;;;;;;;11.19;71.26;97371.19;5015050;28;20046;-74
2021/09/22 07:40:22;;;;;;;17.45;10.13;;;;;;;11.40;70.14;97374.47;4996832;28;20042;-75
2021/09/22 07:42:50;;;;;;;21.05;11.07;;;;;;;11.39;69.71;97378.16;5040284;22;20104;-83
2021/09/22 07:45:16;;;;;;;19.40;10.20;;;;;;;11.73;68.95;97380.38;5026668;28;20038;-84
2021/09/22 07:47:42;;;;;;;21.55;10.30;;;;;;;11.82;67.40;97370.38;5044111;28;20045;-85
2021/09/22 07:50:10;;;;;;;21.15;11.38;;;;;;;11.93;66.47;97374.16;5026875;28;20045;-82
2021/09/22 07:52:39;;;;;;;20.42;10.05;;;;;;;12.13;66.65;97371.34;5044216;28;20042;-84
2021/09/22 07:55:09;;;;;;;19.48;10.15;;;;;;;12.18;65.91;97372.31;5044932;28;20191;-83
2021/09/22 07:57:38;;;;;;;19.75;10.40;;;;;;;12.27;65.45;97375.50;5054185;28;20036;-84
2021/09/22 08:00:06;;;;;;;23.15;13.05;;;;;;;12.35;65.24;97373.34;5035790;28;20045;-84
2021/09/22 08:02:32;;;;;;;24.08;12.23;;;;;;;12.31;64.78;97377.44;5046922;28;20379;-83
2021/09/22 08:04:58;;;;;;;21.73;12.13;;;;;;;12.40;63.41;97377.19;5028939;28;20105;-82
2021/09/22 08:07:23;;;;;;;26.42;14.25;;;;;;;12.47;63.27;97380.53;5044451;28;20085;-85
2021/09/22 08:09:52;;;;;;;19.42;10.35;;;;;;;12.82;63.22;97378.94;5048952;28;20096;-82
2021/09/22 08:12:21;;;;;;;16.80;8.88;;;;;;;12.90;61.53;97391.03;5048054;28;20076;-84
2021/09/22 08:14:47;;;;;;;15.95;8.10;;;;;;;12.93;59.32;97377.41;5026298;28;20045;-84
2021/09/22 08:17:17;;;;;;;18.63;10.40;;;;;;;13.25;59.01;97383.31;5055748;28;20165;-83
2021/09/22 08:19:44;;;;;;;15.98;8.82;;;;;;;13.12;59.30;97383.44;5055139;28;20038;-84
2021/09/22 08:22:11;;;;;;;16.95;8.75;;;;;;;13.56;59.51;97389.41;5045863;28;20064;-83
2021/09/22 08:24:37;;;;;;;15.50;9.15;;;;;;;13.57;57.63;97385.75;5049092;28;20041;-83
2021/09/22 08:27:06;;;;;;;14.73;8.18;;;;;;;13.57;55.78;97385.75;5044481;28;20041;-84
2021/09/22 08:29:36;;;;;;;17.00;8.82;;;;;;;13.91;55.61;97392.94;5045488;28;20383;-84
2021/09/22 08:32:02;;;;;;;16.45;9.07;;;;;;;13.91;56.23;97390.28;5027235;28;20052;-83
2021/09/22 08:34:28;;;;;;;16.10;8.60;;;;;;;14.07;55.33;97374.78;5045224;28;20053;-84
2021/09/22 08:36:54;;;;;;;14.90;8.55;;;;;;;14.15;55.91;97377.06;5047914;28;20037;-82
2021/09/22 08:39:20;;;;;;;14.20;7.88;;;;;;;13.87;54.64;97385.69;5052041;28;20045;-84
2021/09/22 08:41:46;;;;;;;18.13;9.05;;;;;;;13.63;54.26;97395.41;5038067;28;20477;-84
2021/09/22 08:44:14;;;;;;;12.93;6.88;;;;;;;13.99;52.71;97393.63;5037837;28;20033;-83
2021/09/22 08:46:44;;;;;;;14.27;7.82;;;;;;;13.88;53.95;97390.75;5034209;28;20109;-83
2021/09/22 08:49:10;;;;;;;15.25;8.10;;;;;;;14.18;54.56;97395.16;5051900;28;20034;-83
2021/09/22 08:51:37;;;;;;;14.38;7.95;;;;;;;14.19;53.39;97394.13;5054779;28;20040;-84
2021/09/22 08:54:03;;;;;;;14.07;7.05;;;;;;;14.62;50.94;97387.69;5032839;28;20212;-85
2021/09/22 08:56:31;;;;;;;12.77;7.00;;;;;;;14.70;49.12;97384.69;5048645;28;20034;-85
2021/09/22 08:58:57;;;;;;;13.60;7.57;;;;;;;14.22;51.01;97377.00;5052468;28;20025;-82
2021/09/22 09:01:27;;;;;;;13.35;6.80;;;;;;;14.52;51.46;97374.22;5033789;28;20085;-85
2021/09/22 09:03:54;;;;;;;11.73;5.88;;;;;;;14.73;50.69;97373.63;5034146;28;20137;-83
2021/09/22 09:06:25;;;;;;;13.00;7.17;;;;;;;15.15;48.40;97376.03;5054394;28;20049;-83
2021/09/22 09:08:53;;;;;;;12.40;6.38;;;;;;;15.22;48.17;97377.50;5054906;28;20100;-82
2021/09/22 09:11:27;;;;;;;12.75;5.65;;;;;;;15.10;48.59;97365.34;5054097;28;20088;-83
2021/09/22 09:13:54;;;;;;;12.23;5.88;;;;;;;14.73;49.66;97370.97;5038678;28;20056;-83
2021/09/22 09:16:25;;;;;;;11.13;6.10;;;;;;;14.78;49.26;97365.78;5052552;28;20132;-84
2021/09/22 09:18:53;;;;;;;11.25;6.05;;;;;;;14.98;49.27;97354.78;5049829;28;20047;-84
2021/09/22 09:21:21;;;;;;;11.32;6.00;;;;;;;15.21;47.89;97359.19;5047063;28;20045;-84
2021/09/22 09:23:49;;;;;;;9.52;5.20;;;;;;;15.54;46.52;97352.34;5048869;28;20041;-82
2021/09/22 09:26:18;;;;;;;10.95;5.00;;;;;;;15.37;46.80;97363.72;5047868;28;20094;-84
2021/09/22 09:28:51;;;;;;;11.52;5.03;;;;;;;14.88;47.83;97355.41;5027570;28;20132;-85
2021/09/22 09:31:19;;;;;;;10.63;5.22;;;;;;;15.05;48.25;97352.00;5045629;28;20044;-86
2021/09/22 09:33:46;;;;;;;10.57;5.57;;;;;;;15.23;49.36;97363.22;5045340;28;20065;-84
2021/09/22 09:36:17;;;;;;;13.40;5.00;;;;;;;15.25;49.13;97351.59;5046064;28;20426;-85
2021/09/22 09:38:48;;;;;;;11.20;5.18;;;;;;;15.16;50.36;97353.81;5034179;28;20049;-83
2021/09/22 09:41:22;;;;;;;10.52;4.85;;;;;;;15.02;49.84;97348.00;5048980;28;20037;-83
2021/09/22 09:43:48;;;;;;;9.65;4.22;;;;;;;14.98;50.20;97343.41;5028989;28;20045;-83
2021/09/22 09:46:18;;;;;;;10.07;4.70;;;;;;;14.88;50.89;97350.09;5047294;28;20067;-84
2021/09/22 09:48:57;;;;;;;9.75;4.30;;;;;;;15.01;50.67;97346.34;5046896;28;20255;-85
2021/09/22 09:51:30;;;;;;;9.73;4.40;;;;;;;15.33;49.57;97344.03;5045486;28;20044;-84
2021/09/22 09:54:04;;;;;;;11.18;4.68;;;;;;;15.36;49.07;97340.13;5030964;28;20037;-84
2021/09/22 09:56:30;;;;;;;9.90;4.00;;;;;;;15.35;49.83;97335.88;5047462;28;20056;-83
2021/09/22 09:58:57;;;;;;;10.90;4.55;;;;;;;15.73;49.55;97337.88;5047350;28;20057;-85
2021/09/22 10:01:37;;;;;;;10.18;5.43;;;;;;;15.99;48.57;97334.56;5047491;28;20060;-84
2021/09/22 10:04:07;;;;;;;10.50;4.55;;;;;;;15.96;48.75;97340.34;5029943;28;20045;-84
2021/09/22 10:06:35;;;;;;;9.80;3.38;;;;;;;15.60;48.48;97341.59;5049489;28;20444;-84
2021/09/22 10:09:04;;;;;;;7.95;3.33;;;;;;;15.44;49.30;97343.19;5049597;28;20111;-84
2021/09/22 10:11:31;;;;;;;7.85;3.38;;;;;;;15.83;48.66;97342.53;5049847;28;20132;-83
2021/09/22 10:13:57;;;;;;;8.50;3.13;;;;;;;15.78;49.96;97342.47;5051097;28;20128;-84
2021/09/22 10:16:24;;;;;;;9.15;3.75;;;;;;;16.00;50.35;97335.38;5047554;28;20282;-84
2021/09/22 10:18:52;;;;;;;7.50;3.13;;;;;;;16.12;50.05;97335.28;5047663;28;20038;-84
2021/09/22 10:21:19;;;;;;;9.32;3.78;;;;;;;15.97;50.35;97336.66;5047244;28;20425;-85
2021/09/22 10:23:46;;;;;;;9.52;3.38;;;;;;;15.69;50.58;97323.47;5048028;28;20041;-84
2021/09/22 10:26:13;;;;;;;9.40;3.85;;;;;;;15.93;50.61;97330.25;5032930;28;20068;-82
2021/09/22 10:28:43;;;;;;;8.35;3.83;;;;;;;16.04;50.02;97325.09;5053599;28;20046;-84
2021/09/22 10:31:17;;;;;;;11.65;4.38;;;;;;;16.25;49.60;97326.97;5047345;28;20171;-83
2021/09/22 10:33:45;;;;;;;9.13;4.88;;;;;;;16.30;49.39;97324.38;5038800;28;20034;-82
2021/09/22 10:36:11;;;;;;;;;;;;;;;16.38;49.99;97321.31;5032053;28;20049;-85
2021/09/22 10:38:42;;;;;;;8.65;3.90;;;;;;;16.68;49.30;97328.06;5054581;28;19909;-83
2021/09/22 10:41:09;;;;;;;9.52;4.28;;;;;;;16.71;49.64;97325.75;5038561;28;20076;-85
2021/09/22 10:43:43;;;;;;;10.98;5.75;;;;;;;16.21;50.31;97325.88;5030765;28;20068;-84
2021/09/22 10:46:16;;;;;;;12.23;5.70;;;;;;;16.40;49.65;97308.59;5031975;28;20045;-84
2021/09/22 10:48:57;;;;;;;10.52;5.50;;;;;;;16.57;49.50;97318.34;5039889;28;20037;-84
2021/09/22 10:51:29;;;;;;;12.30;5.13;;;;;;;16.67;49.51;97313.97;5049960;28;20045;-84
2021/09/22 10:54:05;;;;;;;10.63;4.75;;;;;;;16.91;48.75;97319.06;5049082;28;20061;-84
2021/09/22 10:56:30;;;;;;;10.05;5.00;;;;;;;16.71;49.63;97319.63;5030802;28;20045;-82
2021/09/22 10:58:59;;;;;;;10.40;5.10;;;;;;;15.94;50.64;97321.22;5030635;28;20065;-82
2021/09/22 11:01:49;;;;;;;10.15;4.80;;;;;;;16.54;49.89;97315.16;5029848;28;20057;-85
2021/09/22 11:04:14;;;;;;;12.48;5.25;;;;;;;16.68;49.18;97309.47;5026471;28;20069;-84
2021/09/22 11:06:51;;;;;;;10.77;5.40;;;;;;;16.79;49.25;97306.72;5049551;28;20052;-83
2021/09/22 11:09:29;;;;;;;8.40;3.88;;;;;;;16.81;49.33;97297.69;5057681;28;20036;-83
2021/09/22 11:12:12;;;;;;;9.20;3.58;;;;;;;16.83;50.21;97301.69;5049222;28;20033;-85
2021/09/22 11:14:53;;;;;;;9.35;3.90;;;;;;;17.24;49.25;97297.63;5039431;28;20029;-82
2021/09/22 11:17:22;;;;;;;8.43;3.10;;;;;;;17.69;47.80;97303.59;5037216;28;20053;-84
2021/09/22 11:19:51;;;;;;;8.13;3.30;;;;;;;17.82;47.93;97303.19;5053570;28;20045;-84
2021/09/22 11:22:19;;;;;;;7.68;3.30;;;;;;;17.48;47.12;97294.63;5051368;28;20539;-84
2021/09/22 11:24:45;;;;;;;9.27;3.97;;;;;;;17.29;48.53;97288.91;5051432;28;20037;-84
2021/09/22 11:27:13;;;;;;;9.27;4.07;;;;;;;17.27;48.31;97286.50;5033612;28;20075;-84
2021/09/22 11:29:46;;;;;;;7.50;2.70;;;;;;;17.21;48.46;97273.38;5033100;28;20029;-85